createdAt,value
2023-02-19T00:01:32.936Z,100407.16
2023-02-19T00:04:00.648Z,100414.22
2023-02-19T00:06:28.990Z,100415.97
2023-02-19T00:08:56.216Z,100410.19
2023-02-19T00:11:27.419Z,100402.72
2023-02-19T00:13:55.714Z,100402.53
2023-02-19T00:16:27.421Z,100399.94
2023-02-19T00:18:55.940Z,100406.59
2023-02-19T00:21:23.064Z,100413.75
2023-02-19T00:23:55.144Z,100411.59
2023-02-19T00:26:22.032Z,100410.41
2023-02-19T00:28:50.521Z,100422.41
2023-02-19T00:31:23.106Z,100422.00
2023-02-19T00:33:52.866Z,100410.81
2023-02-19T00:36:21.907Z,100408.59
2023-02-19T00:38:49.016Z,100406.03
2023-02-19T00:41:20.500Z,100403.22
2023-02-19T00:43:57.340Z,100410.63
2023-02-19T00:46:38.522Z,100410.84
2023-02-19T00:49:07.050Z,100409.22
2023-02-19T00:51:38.195Z,100404.41
2023-02-19T00:54:05.899Z,100409.41
2023-02-19T00:56:33.318Z,100400.00
2023-02-19T00:58:59.954Z,100404.81
2023-02-19T01:01:26.600Z,100409.22
2023-02-19T01:03:53.340Z,100412.03
2023-02-19T01:06:21.630Z,100406.41
2023-02-19T01:08:48.682Z,100409.00
2023-02-19T01:11:16.487Z,100405.81
2023-02-19T01:13:43.654Z,100413.00
2023-02-19T01:16:19.711Z,100396.81
2023-02-19T01:18:47.938Z,100394.41
2023-02-19T01:21:17.832Z,100393.63
2023-02-19T01:23:45.156Z,100401.59
2023-02-19T01:26:15.568Z,100399.41
2023-02-19T01:28:42.081Z,100396.81
2023-02-19T01:31:13.088Z,100392.00
2023-02-19T01:33:40.003Z,100381.81
2023-02-19T01:36:07.695Z,100394.59
2023-02-19T01:38:34.261Z,100385.59
2023-02-19T01:41:07.523Z,100379.22
2023-02-19T01:43:35.517Z,100390.00
2023-02-19T01:46:02.179Z,100389.41
2023-02-19T01:48:35.670Z,100381.22
2023-02-19T01:51:12.947Z,100378.19
2023-02-19T01:53:46.313Z,100380.19
2023-02-19T01:56:16.546Z,100373.19
2023-02-19T01:58:44.193Z,100370.97
2023-02-19T02:01:11.398Z,100375.19
2023-02-19T02:03:41.951Z,100375.19
2023-02-19T02:06:15.900Z,100368.00
2023-02-19T02:09:01.114Z,100373.41
2023-02-19T02:11:29.326Z,100365.56
2023-02-19T02:13:57.553Z,100366.94
2023-02-19T02:16:34.420Z,100360.78
2023-02-19T02:19:58.028Z,100369.81
2023-02-19T02:22:34.042Z,100354.00
2023-02-19T02:25:19.183Z,100356.81
2023-02-19T02:28:00.777Z,100364.78
2023-02-19T02:30:32.216Z,100353.81
2023-02-19T02:33:36.406Z,100342.00
2023-02-19T02:36:27.776Z,100338.78
2023-02-19T02:38:56.881Z,100356.38
2023-02-19T02:41:24.279Z,100352.00
2023-02-19T02:43:50.850Z,100356.19
2023-02-19T02:46:35.034Z,100346.41
2023-02-19T02:49:22.830Z,100350.00
2023-02-19T02:51:53.880Z,100358.59
2023-02-19T02:54:47.188Z,100359.78
2023-02-19T02:57:15.260Z,100360.19
2023-02-19T02:59:43.142Z,100357.19
2023-02-19T03:02:22.777Z,100349.56
2023-02-19T03:05:17.362Z,100352.78
2023-02-19T03:07:51.499Z,100358.38
2023-02-19T03:10:25.210Z,100367.78
2023-02-19T03:13:13.616Z,100373.97
2023-02-19T03:16:06.083Z,100376.00
2023-02-19T03:18:55.417Z,100374.41
2023-02-19T03:21:23.896Z,100365.41
2023-02-19T03:24:09.993Z,100371.59
2023-02-19T03:26:39.018Z,100372.81
2023-02-19T03:29:26.226Z,100374.00
2023-02-19T03:31:58.770Z,100378.59
2023-02-19T03:34:31.005Z,100384.38
2023-02-19T03:37:13.107Z,100388.38
2023-02-19T03:39:44.449Z,100393.72
2023-02-19T03:42:17.279Z,100396.22
2023-02-19T03:44:43.953Z,100392.41
2023-02-19T03:47:24.407Z,100387.19
2023-02-19T03:49:53.548Z,100368.69
2023-02-19T03:52:32.165Z,100384.12
2023-02-19T03:55:19.695Z,100383.97
2023-02-19T03:57:55.874Z,100391.88
2023-02-19T04:00:48.542Z,100390.13
2023-02-19T04:03:24.620Z,100383.41
2023-02-19T04:05:59.595Z,100381.31
2023-02-19T04:08:26.944Z,100381.38
2023-02-19T04:10:54.710Z,100366.88
2023-02-19T04:13:32.826Z,100371.44
2023-02-19T04:16:05.605Z,100370.28
2023-02-19T04:18:36.284Z,100367.03
2023-02-19T04:21:05.917Z,100377.97
2023-02-19T04:23:38.294Z,100374.59
2023-02-19T04:26:08.053Z,100369.94
2023-02-19T04:28:35.425Z,100378.94
2023-02-19T04:31:02.489Z,100374.59
2023-02-19T04:33:29.109Z,100366.22
2023-02-19T04:35:55.685Z,100368.66
2023-02-19T04:38:22.288Z,100371.91
2023-02-19T04:40:51.430Z,100376.31
2023-02-19T04:43:18.635Z,100379.41
2023-02-19T04:45:45.257Z,100379.00
2023-02-19T04:48:12.006Z,100380.66
2023-02-19T04:50:39.811Z,100383.25
2023-02-19T04:53:07.465Z,100387.38
2023-02-19T04:55:38.815Z,100385.19
2023-02-19T04:58:05.487Z,100375.87
2023-02-19T05:00:33.977Z,100386.78
2023-02-19T05:03:01.604Z,100387.84
2023-02-19T05:05:28.285Z,100395.69
2023-02-19T05:07:54.924Z,100394.03
2023-02-19T05:10:21.541Z,100395.22
2023-02-19T05:12:48.177Z,100391.44
2023-02-19T05:15:14.815Z,100391.53
2023-02-19T05:17:41.356Z,100396.31
2023-02-19T05:20:08.696Z,100394.28
2023-02-19T05:22:35.278Z,100392.34
2023-02-19T05:25:01.890Z,100387.44
2023-02-19T05:27:30.715Z,100391.44
2023-02-19T05:29:57.351Z,100392.87
2023-02-19T05:32:23.897Z,100392.72
2023-02-19T05:34:52.073Z,100386.94
2023-02-19T05:37:18.669Z,100393.37
2023-02-19T05:39:45.261Z,100385.19
2023-02-19T05:42:14.346Z,100384.78
2023-02-19T05:44:42.061Z,100371.03
2023-02-19T05:47:08.682Z,100377.78
2023-02-19T05:49:35.275Z,100377.69
2023-02-19T05:52:01.904Z,100366.00
2023-02-19T05:54:29.596Z,100379.66
2023-02-19T05:56:56.370Z,100385.19
2023-02-19T05:59:25.531Z,100390.38
2023-02-19T06:01:53.976Z,100388.28
2023-02-19T06:04:20.737Z,100393.47
2023-02-19T06:06:48.463Z,100397.00
2023-02-19T06:09:15.103Z,100405.81
2023-02-19T06:11:43.435Z,100407.44
2023-02-19T06:14:12.484Z,100404.13
2023-02-19T06:16:39.035Z,100392.41
2023-02-19T06:19:05.694Z,100403.75
2023-02-19T06:21:32.483Z,100403.94
2023-02-19T06:23:59.312Z,100398.72
2023-02-19T06:26:25.934Z,100389.28
2023-02-19T06:28:53.873Z,100386.00
2023-02-19T06:31:22.253Z,100393.34
2023-02-19T06:33:50.721Z,100385.94
2023-02-19T06:36:20.154Z,100382.19
2023-02-19T06:38:46.839Z,100377.50
2023-02-19T06:41:14.041Z,100389.00
2023-02-19T06:43:41.808Z,100381.59
2023-02-19T06:46:10.533Z,100379.78
2023-02-19T06:48:39.730Z,100378.12
2023-02-19T06:51:06.541Z,100374.09
2023-02-19T06:53:33.142Z,100382.87
2023-02-19T06:56:00.915Z,100374.38
2023-02-19T06:58:28.064Z,100381.28
2023-02-19T07:00:54.796Z,100377.91
2023-02-19T07:03:21.754Z,100378.56
2023-02-19T07:05:51.287Z,100370.00
2023-02-19T07:08:18.749Z,100375.91
2023-02-19T07:10:45.853Z,100374.59
2023-02-19T07:13:12.661Z,100373.25
2023-02-19T07:15:39.352Z,100377.62
2023-02-19T07:18:10.376Z,100381.84
2023-02-19T07:20:37.331Z,100385.84
2023-02-19T07:23:04.159Z,100383.88
2023-02-19T07:25:30.742Z,100387.31
2023-02-19T07:27:57.522Z,100392.13
2023-02-19T07:30:24.183Z,100393.66
2023-02-19T07:32:50.808Z,100384.28
2023-02-19T07:35:17.348Z,100385.81
2023-02-19T07:37:43.992Z,100383.47
2023-02-19T07:40:10.972Z,100384.47
2023-02-19T07:42:37.901Z,100373.94
2023-02-19T07:45:04.838Z,100371.72
2023-02-19T07:47:31.513Z,100376.91
2023-02-19T07:49:58.102Z,100377.66
2023-02-19T07:52:24.854Z,100372.72
2023-02-19T07:54:51.556Z,100370.94
2023-02-19T07:57:18.210Z,100367.78
2023-02-19T07:59:44.797Z,100370.75
2023-02-19T08:02:35.798Z,100379.06
2023-02-19T08:05:03.718Z,100382.75
2023-02-19T08:07:40.558Z,100389.41
2023-02-19T08:10:29.231Z,100388.94
2023-02-19T08:13:19.118Z,100395.97
2023-02-19T08:15:47.111Z,100396.53
2023-02-19T08:18:15.052Z,100406.81
2023-02-19T08:20:42.211Z,100413.41
2023-02-19T08:23:09.860Z,100408.78
2023-02-19T08:25:37.115Z,100412.09
2023-02-19T08:28:04.591Z,100420.41
2023-02-19T08:30:33.427Z,100416.75
2023-02-19T08:33:02.350Z,100426.06
2023-02-19T08:35:29.366Z,100432.78
2023-02-19T08:37:59.487Z,100429.91
2023-02-19T08:40:26.707Z,100424.34
2023-02-19T08:42:53.346Z,100427.53
2023-02-19T08:45:20.317Z,100420.22
2023-02-19T08:47:46.974Z,100423.63
2023-02-19T08:50:13.588Z,100417.50
2023-02-19T08:52:40.147Z,100417.22
2023-02-19T08:55:07.338Z,100415.59
2023-02-19T08:57:37.718Z,100413.03
2023-02-19T09:00:06.563Z,100413.19
2023-02-19T09:02:33.644Z,100422.12
2023-02-19T09:05:00.317Z,100413.56
2023-02-19T09:07:27.388Z,100413.56
2023-02-19T09:09:54.142Z,100417.31
2023-02-19T09:12:21.396Z,100417.31
2023-02-19T09:14:47.988Z,100411.94
2023-02-19T09:17:14.644Z,100411.88
2023-02-19T09:19:41.221Z,100409.69
2023-02-19T09:22:07.834Z,100407.84
2023-02-19T09:24:34.414Z,100410.59
2023-02-19T09:27:01.115Z,100407.22
2023-02-19T09:29:28.771Z,100409.00
2023-02-19T09:31:59.865Z,100405.25
2023-02-19T09:34:27.881Z,100416.94
2023-02-19T09:36:57.462Z,100408.19
2023-02-19T09:39:24.044Z,100402.28
2023-02-19T09:41:58.375Z,100399.19
2023-02-19T09:44:32.856Z,100397.63
2023-02-19T09:47:01.809Z,100389.75
2023-02-19T09:49:40.567Z,100383.09
2023-02-19T09:52:27.102Z,100388.88
2023-02-19T09:54:57.709Z,100382.59
2023-02-19T09:57:28.023Z,100379.22
2023-02-19T10:00:07.969Z,100383.63
2023-02-19T10:02:35.714Z,100376.66
2023-02-19T10:05:03.799Z,100380.31
2023-02-19T10:07:40.559Z,100380.53
2023-02-19T10:10:13.396Z,100373.13
2023-02-19T10:12:45.828Z,100358.34
2023-02-19T10:15:19.012Z,100359.81
2023-02-19T10:17:45.611Z,100353.34
2023-02-19T10:20:17.614Z,100332.97
2023-02-19T10:22:44.869Z,100334.19
2023-02-19T10:25:16.674Z,100330.38
2023-02-19T10:27:44.125Z,100322.69
2023-02-19T10:30:21.431Z,100332.09
2023-02-19T10:33:12.478Z,100330.91
2023-02-19T10:35:56.242Z,100331.75
2023-02-19T10:38:45.581Z,100321.63
2023-02-19T10:41:12.353Z,100325.44
2023-02-19T10:43:43.594Z,100311.94
2023-02-19T10:46:17.840Z,100309.09
2023-02-19T10:48:55.607Z,100300.94
2023-02-19T10:51:32.067Z,100305.56
2023-02-19T10:54:21.354Z,100294.97
2023-02-19T10:56:47.998Z,100295.09
2023-02-19T10:59:28.821Z,100282.13
2023-02-19T11:02:01.516Z,100274.56
2023-02-19T11:04:34.031Z,100267.59
2023-02-19T11:07:14.944Z,100259.34
2023-02-19T11:09:47.779Z,100262.22
2023-02-19T11:12:23.398Z,100253.75
2023-02-19T11:14:50.051Z,100251.56
2023-02-19T11:17:30.608Z,100236.56
2023-02-19T11:20:01.955Z,100234.22
2023-02-19T11:22:40.358Z,100228.62
2023-02-19T11:25:12.862Z,100223.53
2023-02-19T11:27:57.199Z,100210.59
2023-02-19T11:30:41.809Z,100221.62
2023-02-19T11:33:17.719Z,100205.22
2023-02-19T11:35:44.579Z,100205.88
2023-02-19T11:38:14.173Z,100197.38
2023-02-19T11:41:14.725Z,100190.91
2023-02-19T11:43:58.733Z,100176.63
2023-02-19T11:47:26.193Z,100177.44
2023-02-19T11:50:28.538Z,100186.88
2023-02-19T11:53:21.704Z,100195.09
2023-02-19T11:56:34.102Z,100194.38
2023-02-19T11:59:07.368Z,100196.69
2023-02-19T12:01:55.417Z,100191.72
2023-02-19T12:04:40.878Z,100197.88
2023-02-19T12:07:47.664Z,100185.84
2023-02-19T12:10:20.046Z,100190.31
2023-02-19T12:13:07.810Z,100177.97
2023-02-19T12:16:21.900Z,100179.69
2023-02-19T12:19:17.163Z,100187.66
2023-02-19T12:22:04.518Z,100184.75
2023-02-19T12:25:23.800Z,100179.91
2023-02-19T12:28:18.565Z,100191.53
2023-02-19T12:30:51.355Z,100187.91
2023-02-19T12:33:41.177Z,100186.19
2023-02-19T12:36:20.068Z,100192.41
2023-02-19T12:39:23.299Z,100190.66
2023-02-19T12:42:31.490Z,100185.81
2023-02-19T12:45:04.224Z,100171.81
2023-02-19T12:47:42.156Z,100185.44
2023-02-19T12:50:21.698Z,100188.69
2023-02-19T12:52:58.673Z,100190.72
2023-02-19T12:55:30.019Z,100193.31
2023-02-19T12:58:01.408Z,100203.53
2023-02-19T13:00:36.493Z,100194.56
2023-02-19T13:03:09.337Z,100194.25
2023-02-19T13:06:08.298Z,100198.00
2023-02-19T13:09:06.284Z,100190.81
2023-02-19T13:11:45.118Z,100202.19
2023-02-19T13:14:25.197Z,100191.69
2023-02-19T13:16:57.801Z,100200.91
2023-02-19T13:19:24.562Z,100193.53
2023-02-19T13:22:21.324Z,100170.44
2023-02-19T13:24:49.574Z,100178.28
2023-02-19T13:27:34.322Z,100177.66
2023-02-19T13:30:10.586Z,100186.34
2023-02-19T13:32:48.346Z,100169.16
2023-02-19T13:35:24.063Z,100169.25
2023-02-19T13:37:51.790Z,100169.56
2023-02-19T13:40:42.994Z,100174.12
2023-02-19T13:43:28.102Z,100175.44
2023-02-19T13:46:00.683Z,100174.72
2023-02-19T13:48:31.680Z,100165.31
2023-02-19T13:51:16.867Z,100169.94
2023-02-19T13:53:44.657Z,100157.88
2023-02-19T13:56:29.988Z,100168.31
2023-02-19T13:59:13.143Z,100175.78
2023-02-19T14:01:54.968Z,100177.06
2023-02-19T14:04:46.647Z,100189.50
2023-02-19T14:07:13.126Z,100208.94
2023-02-19T14:09:45.726Z,100205.56
2023-02-19T14:12:16.270Z,100224.78
2023-02-19T14:14:44.095Z,100231.25
2023-02-19T14:17:12.337Z,100213.09
2023-02-19T14:19:41.687Z,100227.16
2023-02-19T14:23:05.705Z,100255.22
2023-02-19T14:25:45.600Z,100255.00
2023-02-19T14:28:21.011Z,100264.63
2023-02-19T14:31:00.678Z,100267.22
2023-02-19T14:33:36.267Z,100273.63
2023-02-19T14:36:09.399Z,100276.56
2023-02-19T14:38:42.353Z,100264.41
2023-02-19T14:41:13.211Z,100271.22
2023-02-19T14:43:40.600Z,100285.19
2023-02-19T14:46:16.171Z,100291.00
2023-02-19T14:48:46.535Z,100292.62
2023-02-19T14:51:40.590Z,100302.00
2023-02-19T14:54:17.640Z,100314.81
2023-02-19T14:56:48.619Z,100308.78
2023-02-19T14:59:26.483Z,100309.62
2023-02-19T15:02:21.152Z,100310.41
2023-02-19T15:04:48.258Z,100311.41
2023-02-19T15:07:20.038Z,100300.81
2023-02-19T15:09:53.320Z,100294.59
2023-02-19T15:12:23.323Z,100290.00
2023-02-19T15:14:53.124Z,100275.59
2023-02-19T15:17:27.873Z,100266.78
2023-02-19T15:19:56.926Z,100275.16
2023-02-19T15:22:28.293Z,100266.59
2023-02-19T15:24:55.656Z,100263.97
2023-02-19T15:27:24.610Z,100274.78
2023-02-19T15:29:53.812Z,100277.63
2023-02-19T15:32:28.709Z,100262.41
2023-02-19T15:35:00.420Z,100273.22
2023-02-19T15:37:32.642Z,100275.97
2023-02-19T15:40:02.146Z,100273.97
2023-02-19T15:42:31.130Z,100269.56
2023-02-19T15:45:04.205Z,100275.56
2023-02-19T15:47:43.000Z,100292.13
2023-02-19T15:50:14.894Z,100294.91
2023-02-19T15:52:55.212Z,100296.09
2023-02-19T15:55:21.723Z,100308.69
2023-02-19T15:57:58.231Z,100326.38
2023-02-19T16:00:35.275Z,100323.00
2023-02-19T16:03:02.208Z,100338.66
2023-02-19T16:05:29.583Z,100335.87
2023-02-19T16:08:32.747Z,100338.25
2023-02-19T16:11:02.105Z,100351.97
2023-02-19T16:13:31.605Z,100350.03
2023-02-19T16:16:16.107Z,100350.78
2023-02-19T16:18:47.636Z,100358.03
2023-02-19T16:21:16.873Z,100359.91
2023-02-19T16:23:45.358Z,100357.41
2023-02-19T16:26:12.501Z,100363.91
2023-02-19T16:28:41.878Z,100353.13
2023-02-19T16:31:12.234Z,100353.69
2023-02-19T16:33:41.856Z,100361.50
2023-02-19T16:36:33.354Z,100357.34
2023-02-19T16:39:13.008Z,100351.16
2023-02-19T16:41:39.529Z,100360.56
2023-02-19T16:44:35.762Z,100361.00
2023-02-19T16:47:14.051Z,100369.37
2023-02-19T16:49:42.542Z,100375.53
2023-02-19T16:52:14.399Z,100373.16
2023-02-19T16:54:42.552Z,100391.16
2023-02-19T16:57:09.300Z,100375.16
2023-02-19T16:59:35.930Z,100365.34
2023-02-19T17:02:05.638Z,100362.06
2023-02-19T17:04:32.250Z,100355.22
2023-02-19T17:06:58.845Z,100376.94
2023-02-19T17:09:25.413Z,100378.94
2023-02-19T17:11:51.997Z,100387.91
2023-02-19T17:14:19.139Z,100401.72
2023-02-19T17:16:45.841Z,100402.87
2023-02-19T17:19:14.573Z,100403.31
2023-02-19T17:21:41.572Z,100408.31
2023-02-19T17:24:08.274Z,100410.31
2023-02-19T17:26:34.885Z,100424.84
2023-02-19T17:29:05.014Z,100421.00
2023-02-19T17:31:32.576Z,100428.19
2023-02-19T17:33:59.629Z,100416.37
2023-02-19T17:36:31.586Z,100424.16
2023-02-19T17:39:00.187Z,100433.34
2023-02-19T17:41:27.001Z,100429.69
2023-02-19T17:43:53.646Z,100444.88
2023-02-19T17:46:25.910Z,100436.19
2023-02-19T17:48:53.914Z,100441.16
2023-02-19T17:51:21.195Z,100438.78
2023-02-19T17:53:47.957Z,100437.47
2023-02-19T17:56:20.293Z,100450.87
2023-02-19T17:58:47.213Z,100462.75
2023-02-19T18:01:14.790Z,100480.41
2023-02-19T18:03:41.817Z,100477.75
2023-02-19T18:06:08.710Z,100477.94
2023-02-19T18:08:36.132Z,100472.19
2023-02-19T18:11:09.998Z,100484.34
2023-02-19T18:13:43.139Z,100484.09
2023-02-19T18:16:30.378Z,100477.19
2023-02-19T18:19:03.101Z,100473.47
2023-02-19T18:21:29.923Z,100470.94
2023-02-19T18:24:00.720Z,100477.97
2023-02-19T18:26:34.115Z,100495.56
2023-02-19T18:29:02.335Z,100493.06
2023-02-19T18:31:33.225Z,100499.22
2023-02-19T18:34:00.035Z,100489.34
2023-02-19T18:36:32.691Z,100501.72
2023-02-19T18:39:01.934Z,100502.50
2023-02-19T18:41:29.062Z,100505.28
2023-02-19T18:43:56.100Z,100511.91
2023-02-19T18:46:23.394Z,100510.22
2023-02-19T18:48:50.424Z,100520.78
2023-02-19T18:51:17.420Z,100519.81
2023-02-19T18:53:44.331Z,100525.00
2023-02-19T18:56:11.491Z,100530.00
2023-02-19T18:58:44.089Z,100527.34
2023-02-19T19:01:19.552Z,100528.09
2023-02-19T19:03:55.652Z,100526.69
2023-02-19T19:06:28.659Z,100524.94
2023-02-19T19:09:10.782Z,100526.84
2023-02-19T19:11:41.524Z,100520.84
2023-02-19T19:14:16.982Z,100526.75
2023-02-19T19:16:46.732Z,100530.09
2023-02-19T19:19:16.627Z,100526.50
2023-02-19T19:21:43.520Z,100524.00
2023-02-19T19:24:12.613Z,100524.09
2023-02-19T19:26:47.149Z,100523.22
2023-02-19T19:29:23.336Z,100525.53
2023-02-19T19:31:51.894Z,100541.28
2023-02-19T19:34:40.520Z,100544.03
2023-02-19T19:37:22.728Z,100553.28
2023-02-19T19:39:56.013Z,100567.03
2023-02-19T19:42:29.284Z,100586.78
2023-02-19T19:45:15.994Z,100602.13
2023-02-19T19:48:38.684Z,100597.50
2023-02-19T19:55:08.966Z,100635.56
2023-02-19T19:58:05.705Z,100653.44
2023-02-19T20:01:16.125Z,100675.59
2023-02-19T20:03:46.164Z,100675.16
2023-02-19T20:07:22.970Z,100668.53
2023-02-19T20:10:14.716Z,100683.84
2023-02-19T20:16:44.927Z,100678.72
2023-02-19T20:19:43.529Z,100690.59
2023-02-19T20:22:20.879Z,100674.63
2023-02-19T20:25:39.095Z,100675.06
2023-02-19T20:28:07.605Z,100680.41
2023-02-19T20:30:49.800Z,100667.03
2023-02-19T20:39:59.143Z,100663.69
2023-02-19T20:44:40.712Z,100672.53
2023-02-19T20:46:15.205Z,100691.84
2023-02-19T20:48:52.096Z,100700.56
2023-02-19T20:51:32.139Z,100708.25
2023-02-19T20:54:06.373Z,100710.72
2023-02-19T20:56:49.255Z,100719.69
2023-02-19T20:59:23.873Z,100717.63
2023-02-19T21:02:02.374Z,100733.84
2023-02-19T21:04:34.565Z,100741.69
2023-02-19T21:07:25.011Z,100739.00
2023-02-19T21:10:16.068Z,100755.97
2023-02-19T21:12:48.673Z,100743.72
2023-02-19T21:18:21.817Z,100761.63
2023-02-19T21:20:59.366Z,100762.91
2023-02-19T21:23:45.918Z,100758.91
2023-02-19T21:26:45.997Z,100774.00
2023-02-19T21:29:26.375Z,100775.94
2023-02-19T21:32:56.055Z,100793.91
2023-02-19T21:35:28.826Z,100791.47
2023-02-19T21:38:20.441Z,100794.22
2023-02-19T21:41:03.222Z,100797.44
2023-02-19T21:46:29.979Z,100807.50
2023-02-19T21:49:00.432Z,100809.91
2023-02-19T21:52:03.425Z,100810.22
2023-02-19T21:55:10.118Z,100815.53
2023-02-19T21:57:51.742Z,100824.88
2023-02-19T22:00:48.645Z,100832.78
2023-02-19T22:03:27.010Z,100838.34
2023-02-19T22:06:21.306Z,100842.09
2023-02-19T22:08:52.326Z,100832.88
2023-02-19T22:11:19.677Z,100849.50
2023-02-19T22:13:50.282Z,100857.87
2023-02-19T22:19:02.206Z,100876.12
2023-02-19T22:21:52.791Z,100882.59
2023-02-19T22:24:22.420Z,100880.53
2023-02-19T22:27:19.516Z,100894.06
2023-02-19T22:30:02.210Z,100899.03
2023-02-19T22:32:37.116Z,100901.31
2023-02-19T22:38:22.683Z,100913.00
2023-02-19T22:41:16.239Z,100911.56
2023-02-19T22:44:02.274Z,100917.25
2023-02-19T22:46:48.749Z,100917.34
2023-02-19T22:49:20.677Z,100931.25
2023-02-19T22:52:17.225Z,100931.41
2023-02-19T22:54:45.051Z,100946.44
2023-02-19T22:57:18.003Z,100938.78
2023-02-19T22:59:51.751Z,100941.81
2023-02-19T23:02:24.471Z,100949.09
2023-02-19T23:04:51.742Z,100955.78
2023-02-19T23:07:19.210Z,100966.09
2023-02-19T23:09:46.450Z,100973.03
2023-02-19T23:12:16.495Z,100963.22
2023-02-19T23:14:43.728Z,100975.81
2023-02-19T23:17:11.026Z,100975.81
2023-02-19T23:19:38.395Z,100980.19
2023-02-19T23:22:06.459Z,100973.78
2023-02-19T23:24:33.210Z,100980.25
2023-02-19T23:27:00.643Z,100979.94
2023-02-19T23:29:28.052Z,100975.38
2023-02-19T23:31:55.162Z,100980.25
2023-02-19T23:34:22.873Z,100976.50
2023-02-19T23:36:50.564Z,100972.37
2023-02-19T23:39:20.639Z,100966.84
2023-02-19T23:41:49.304Z,100973.78
2023-02-19T23:44:16.600Z,100975.09
2023-02-19T23:46:44.018Z,100979.87
2023-02-19T23:49:10.622Z,100985.56
2023-02-19T23:51:37.568Z,100979.44
2023-02-19T23:54:04.568Z,100994.25
2023-02-19T23:56:31.808Z,100997.31
2023-02-19T23:58:58.611Z,100999.34
